sensor_id;sensor_type;location;lat;lon;timestamp;P1;durP1;ratioP1;P2;durP2;ratioP2
8946;SDS011;4508;48.790;9.028;2022-10-31T00:01:18;6.32;;;4.10;;
8946;SDS011;4508;48.790;9.028;2022-10-31T00:03:48;5.63;;;3.75;;
8946;SDS011;4508;48.790;9.028;2022-10-31T00:06:15;4.85;;;3.80;;
8946;SDS011;4508;48.790;9.028;2022-10-31T00:08:43;4.77;;;3.50;;
8946;SDS011;4508;48.790;9.028;2022-10-31T00:11:10;7.35;;;4.10;;
8946;SDS011;4508;48.790;9.028;2022-10-31T00:13:37;7.15;;;3.92;;
8946;SDS011;4508;48.790;9.028;2022-10-31T00:16:04;5.93;;;3.75;;
8946;SDS011;4508;48.790;9.028;2022-10-31T00:18:31;6.25;;;3.72;;
8946;SDS011;4508;48.790;9.028;2022-10-31T00:21:00;6.53;;;4.07;;
8946;SDS011;4508;48.790;9.028;2022-10-31T00:23:27;7.28;;;3.83;;
8946;SDS011;4508;48.790;9.028;2022-10-31T00:25:54;6.10;;;3.80;;
8946;SDS011;4508;48.790;9.028;2022-10-31T00:28:25;5.50;;;3.60;;
8946;SDS011;4508;48.790;9.028;2022-10-31T00:30:52;4.40;;;3.50;;
8946;SDS011;4508;48.790;9.028;2022-10-31T00:33:19;6.45;;;3.63;;
8946;SDS011;4508;48.790;9.028;2022-10-31T00:35:48;4.53;;;3.42;;
8946;SDS011;4508;48.790;9.028;2022-10-31T00:38:17;6.43;;;3.53;;
8946;SDS011;4508;48.790;9.028;2022-10-31T00:40:44;6.05;;;3.60;;
8946;SDS011;4508;48.790;9.028;2022-10-31T00:43:10;7.00;;;3.55;;
8946;SDS011;4508;48.790;9.028;2022-10-31T00:45:38;4.68;;;3.30;;
8946;SDS011;4508;48.790;9.028;2022-10-31T00:48:05;7.07;;;4.07;;
8946;SDS011;4508;48.790;9.028;2022-10-31T00:50:31;4.95;;;3.33;;
8946;SDS011;4508;48.790;9.028;2022-10-31T00:52:58;6.00;;;3.50;;
8946;SDS011;4508;48.790;9.028;2022-10-31T00:55:26;6.65;;;3.90;;
8946;SDS011;4508;48.790;9.028;2022-10-31T00:57:53;6.10;;;3.80;;
8946;SDS011;4508;48.790;9.028;2022-10-31T01:00:20;6.00;;;3.53;;
8946;SDS011;4508;48.790;9.028;2022-10-31T01:02:47;5.72;;;3.28;;
8946;SDS011;4508;48.790;9.028;2022-10-31T01:05:14;6.22;;;3.47;;
8946;SDS011;4508;48.790;9.028;2022-10-31T01:07:41;6.30;;;3.65;;
8946;SDS011;4508;48.790;9.028;2022-10-31T01:10:08;6.65;;;3.70;;
8946;SDS011;4508;48.790;9.028;2022-10-31T01:12:37;6.78;;;3.30;;
8946;SDS011;4508;48.790;9.028;2022-10-31T01:15:04;5.85;;;3.30;;
8946;SDS011;4508;48.790;9.028;2022-10-31T01:17:32;5.53;;;3.47;;
8946;SDS011;4508;48.790;9.028;2022-10-31T01:19:58;5.85;;;3.70;;
8946;SDS011;4508;48.790;9.028;2022-10-31T01:22:25;6.73;;;3.77;;
8946;SDS011;4508;48.790;9.028;2022-10-31T01:24:52;6.87;;;3.77;;
8946;SDS011;4508;48.790;9.028;2022-10-31T01:27:19;5.85;;;3.50;;
8946;SDS011;4508;48.790;9.028;2022-10-31T01:29:47;6.05;;;3.30;;
8946;SDS011;4508;48.790;9.028;2022-10-31T01:32:14;5.72;;;3.50;;
8946;SDS011;4508;48.790;9.028;2022-10-31T01:34:40;7.47;;;3.60;;
8946;SDS011;4508;48.790;9.028;2022-10-31T01:37:07;6.43;;;3.60;;
8946;SDS011;4508;48.790;9.028;2022-10-31T01:39:34;5.28;;;3.70;;
8946;SDS011;4508;48.790;9.028;2022-10-31T01:42:01;5.03;;;3.50;;
8946;SDS011;4508;48.790;9.028;2022-10-31T01:47:20;6.93;;;3.35;;
8946;SDS011;4508;48.790;9.028;2022-10-31T01:49:53;6.47;;;3.20;;
8946;SDS011;4508;48.790;9.028;2022-10-31T01:52:23;6.15;;;3.50;;
8946;SDS011;4508;48.790;9.028;2022-10-31T01:54:53;5.07;;;3.58;;
8946;SDS011;4508;48.790;9.028;2022-10-31T01:57:24;5.82;;;3.35;;
8946;SDS011;4508;48.790;9.028;2022-10-31T01:59:53;5.93;;;3.40;;
8946;SDS011;4508;48.790;9.028;2022-10-31T02:02:23;4.47;;;3.50;;
8946;SDS011;4508;48.790;9.028;2022-10-31T02:04:51;6.07;;;3.55;;
8946;SDS011;4508;48.790;9.028;2022-10-31T02:07:20;8.75;;;3.80;;
8946;SDS011;4508;48.790;9.028;2022-10-31T02:09:51;6.00;;;3.13;;
8946;SDS011;4508;48.790;9.028;2022-10-31T02:12:19;6.10;;;3.58;;
8946;SDS011;4508;48.790;9.028;2022-10-31T02:14:46;6.47;;;3.60;;
8946;SDS011;4508;48.790;9.028;2022-10-31T02:17:14;6.65;;;3.17;;
8946;SDS011;4508;48.790;9.028;2022-10-31T02:19:44;7.32;;;3.50;;
8946;SDS011;4508;48.790;9.028;2022-10-31T02:22:20;5.00;;;3.17;;
8946;SDS011;4508;48.790;9.028;2022-10-31T02:25:02;5.78;;;3.33;;
8946;SDS011;4508;48.790;9.028;2022-10-31T02:27:48;5.70;;;3.20;;
8946;SDS011;4508;48.790;9.028;2022-10-31T02:30:37;5.90;;;3.47;;
8946;SDS011;4508;48.790;9.028;2022-10-31T02:33:17;5.95;;;3.50;;
8946;SDS011;4508;48.790;9.028;2022-10-31T02:35:52;6.85;;;3.35;;
8946;SDS011;4508;48.790;9.028;2022-10-31T02:38:28;4.82;;;3.53;;
8946;SDS011;4508;48.790;9.028;2022-10-31T02:41:06;7.03;;;3.60;;
8946;SDS011;4508;48.790;9.028;2022-10-31T02:43:43;6.30;;;3.40;;
8946;SDS011;4508;48.790;9.028;2022-10-31T02:46:18;5.63;;;3.45;;
8946;SDS011;4508;48.790;9.028;2022-10-31T02:48:51;6.88;;;3.45;;
8946;SDS011;4508;48.790;9.028;2022-10-31T02:51:21;6.53;;;3.20;;
8946;SDS011;4508;48.790;9.028;2022-10-31T02:53:48;5.97;;;3.70;;
8946;SDS011;4508;48.790;9.028;2022-10-31T02:56:16;6.63;;;3.40;;
8946;SDS011;4508;48.790;9.028;2022-10-31T02:58:45;5.10;;;3.13;;
8946;SDS011;4508;48.790;9.028;2022-10-31T03:01:28;5.88;;;3.40;;
8946;SDS011;4508;48.790;9.028;2022-10-31T03:04:19;5.22;;;3.30;;
8946;SDS011;4508;48.790;9.028;2022-10-31T03:07:02;4.63;;;3.42;;
8946;SDS011;4508;48.790;9.028;2022-10-31T03:09:34;5.88;;;3.35;;
8946;SDS011;4508;48.790;9.028;2022-10-31T03:12:11;6.35;;;3.47;;
8946;SDS011;4508;48.790;9.028;2022-10-31T03:14:43;4.60;;;3.60;;
8946;SDS011;4508;48.790;9.028;2022-10-31T03:17:20;7.18;;;3.58;;
8946;SDS011;4508;48.790;9.028;2022-10-31T03:19:52;6.50;;;3.67;;
8946;SDS011;4508;48.790;9.028;2022-10-31T03:22:22;5.20;;;3.33;;
8946;SDS011;4508;48.790;9.028;2022-10-31T03:24:50;5.20;;;3.08;;
8946;SDS011;4508;48.790;9.028;2022-10-31T03:27:19;5.00;;;3.30;;
8946;SDS011;4508;48.790;9.028;2022-10-31T03:29:48;6.60;;;3.40;;
8946;SDS011;4508;48.790;9.028;2022-10-31T03:32:17;6.23;;;3.50;;
8946;SDS011;4508;48.790;9.028;2022-10-31T03:34:46;6.23;;;3.50;;
8946;SDS011;4508;48.790;9.028;2022-10-31T03:37:18;6.22;;;3.60;;
8946;SDS011;4508;48.790;9.028;2022-10-31T03:39:47;5.40;;;3.40;;
8946;SDS011;4508;48.790;9.028;2022-10-31T03:42:16;5.63;;;3.60;;
8946;SDS011;4508;48.790;9.028;2022-10-31T03:44:47;6.10;;;3.30;;
8946;SDS011;4508;48.790;9.028;2022-10-31T03:47:19;5.15;;;3.13;;
8946;SDS011;4508;48.790;9.028;2022-10-31T03:49:46;6.38;;;3.25;;
8946;SDS011;4508;48.790;9.028;2022-10-31T03:52:14;5.47;;;3.15;;
8946;SDS011;4508;48.790;9.028;2022-10-31T03:54:52;4.13;;;3.20;;
8946;SDS011;4508;48.790;9.028;2022-10-31T03:57:23;5.78;;;3.58;;
8946;SDS011;4508;48.790;9.028;2022-10-31T03:59:53;5.32;;;3.50;;
8946;SDS011;4508;48.790;9.028;2022-10-31T04:02:27;4.47;;;3.20;;
8946;SDS011;4508;48.790;9.028;2022-10-31T04:04:56;5.10;;;3.28;;
8946;SDS011;4508;48.790;9.028;2022-10-31T04:07:27;5.38;;;3.42;;
8946;SDS011;4508;48.790;9.028;2022-10-31T04:09:57;7.20;;;3.50;;
8946;SDS011;4508;48.790;9.028;2022-10-31T04:12:24;5.57;;;3.38;;
8946;SDS011;4508;48.790;9.028;2022-10-31T04:14:54;5.43;;;3.20;;
8946;SDS011;4508;48.790;9.028;2022-10-31T04:17:22;5.82;;;3.50;;
8946;SDS011;4508;48.790;9.028;2022-10-31T04:19:53;5.77;;;3.30;;
8946;SDS011;4508;48.790;9.028;2022-10-31T04:22:19;5.90;;;3.42;;
8946;SDS011;4508;48.790;9.028;2022-10-31T04:24:48;4.88;;;3.50;;
8946;SDS011;4508;48.790;9.028;2022-10-31T04:27:14;5.05;;;3.58;;
8946;SDS011;4508;48.790;9.028;2022-10-31T04:29:41;6.37;;;3.50;;
8946;SDS011;4508;48.790;9.028;2022-10-31T04:32:08;7.07;;;3.50;;
8946;SDS011;4508;48.790;9.028;2022-10-31T04:34:34;7.80;;;3.63;;
8946;SDS011;4508;48.790;9.028;2022-10-31T04:37:01;5.43;;;3.40;;
8946;SDS011;4508;48.790;9.028;2022-10-31T04:39:28;5.35;;;3.33;;
8946;SDS011;4508;48.790;9.028;2022-10-31T04:41:56;6.60;;;3.50;;
8946;SDS011;4508;48.790;9.028;2022-10-31T04:44:22;7.75;;;3.50;;
8946;SDS011;4508;48.790;9.028;2022-10-31T04:46:49;6.63;;;3.38;;
8946;SDS011;4508;48.790;9.028;2022-10-31T04:49:16;5.43;;;3.30;;
8946;SDS011;4508;48.790;9.028;2022-10-31T04:51:43;7.28;;;3.60;;
8946;SDS011;4508;48.790;9.028;2022-10-31T04:54:09;7.07;;;3.70;;
8946;SDS011;4508;48.790;9.028;2022-10-31T04:56:36;5.85;;;3.40;;
8946;SDS011;4508;48.790;9.028;2022-10-31T04:59:04;6.90;;;3.60;;
8946;SDS011;4508;48.790;9.028;2022-10-31T05:01:31;5.63;;;3.38;;
8946;SDS011;4508;48.790;9.028;2022-10-31T05:03:57;5.43;;;3.70;;
8946;SDS011;4508;48.790;9.028;2022-10-31T05:06:24;5.60;;;3.55;;
8946;SDS011;4508;48.790;9.028;2022-10-31T05:08:51;8.48;;;3.92;;
8946;SDS011;4508;48.790;9.028;2022-10-31T05:11:17;6.95;;;3.55;;
8946;SDS011;4508;48.790;9.028;2022-10-31T05:13:44;5.32;;;3.50;;
8946;SDS011;4508;48.790;9.028;2022-10-31T05:16:12;5.65;;;3.33;;
8946;SDS011;4508;48.790;9.028;2022-10-31T05:18:39;5.78;;;3.70;;
8946;SDS011;4508;48.790;9.028;2022-10-31T05:21:05;5.78;;;3.60;;
8946;SDS011;4508;48.790;9.028;2022-10-31T05:23:32;5.03;;;3.58;;
8946;SDS011;4508;48.790;9.028;2022-10-31T05:25:59;9.60;;;3.57;;
8946;SDS011;4508;48.790;9.028;2022-10-31T05:28:25;7.18;;;3.58;;
8946;SDS011;4508;48.790;9.028;2022-10-31T05:30:52;6.80;;;3.50;;
8946;SDS011;4508;48.790;9.028;2022-10-31T05:33:20;5.93;;;3.67;;
8946;SDS011;4508;48.790;9.028;2022-10-31T05:35:47;7.15;;;3.63;;
8946;SDS011;4508;48.790;9.028;2022-10-31T05:38:14;5.68;;;3.60;;
8946;SDS011;4508;48.790;9.028;2022-10-31T05:40:41;7.38;;;3.65;;
8946;SDS011;4508;48.790;9.028;2022-10-31T05:43:07;6.65;;;3.80;;
8946;SDS011;4508;48.790;9.028;2022-10-31T05:45:34;5.63;;;3.47;;
8946;SDS011;4508;48.790;9.028;2022-10-31T05:48:01;4.82;;;3.72;;
8946;SDS011;4508;48.790;9.028;2022-10-31T05:50:30;6.13;;;3.80;;
8946;SDS011;4508;48.790;9.028;2022-10-31T05:52:58;5.93;;;3.80;;
8946;SDS011;4508;48.790;9.028;2022-10-31T05:55:26;6.78;;;3.75;;
8946;SDS011;4508;48.790;9.028;2022-10-31T05:57:53;6.45;;;3.60;;
8946;SDS011;4508;48.790;9.028;2022-10-31T06:00:20;6.75;;;3.80;;
8946;SDS011;4508;48.790;9.028;2022-10-31T06:02:47;7.38;;;3.67;;
8946;SDS011;4508;48.790;9.028;2022-10-31T06:05:15;5.07;;;3.50;;
8946;SDS011;4508;48.790;9.028;2022-10-31T06:07:43;6.38;;;3.70;;
8946;SDS011;4508;48.790;9.028;2022-10-31T06:10:09;6.07;;;3.80;;
8946;SDS011;4508;48.790;9.028;2022-10-31T06:12:36;5.82;;;3.75;;
8946;SDS011;4508;48.790;9.028;2022-10-31T06:15:06;4.60;;;3.72;;
8946;SDS011;4508;48.790;9.028;2022-10-31T06:17:34;4.68;;;3.30;;
8946;SDS011;4508;48.790;9.028;2022-10-31T06:20:01;4.53;;;3.63;;
8946;SDS011;4508;48.790;9.028;2022-10-31T06:22:28;6.43;;;3.50;;
8946;SDS011;4508;48.790;9.028;2022-10-31T06:24:56;5.22;;;3.55;;
8946;SDS011;4508;48.790;9.028;2022-10-31T06:27:23;6.20;;;3.72;;
8946;SDS011;4508;48.790;9.028;2022-10-31T06:29:51;7.25;;;4.20;;
8946;SDS011;4508;48.790;9.028;2022-10-31T06:32:18;7.53;;;3.97;;
8946;SDS011;4508;48.790;9.028;2022-10-31T06:34:45;6.65;;;3.90;;
8946;SDS011;4508;48.790;9.028;2022-10-31T06:37:13;5.75;;;3.70;;
8946;SDS011;4508;48.790;9.028;2022-10-31T06:39:39;6.53;;;3.72;;
8946;SDS011;4508;48.790;9.028;2022-10-31T06:42:08;7.70;;;3.77;;
8946;SDS011;4508;48.790;9.028;2022-10-31T06:44:34;6.47;;;3.70;;
8946;SDS011;4508;48.790;9.028;2022-10-31T06:47:01;8.18;;;4.03;;
8946;SDS011;4508;48.790;9.028;2022-10-31T06:49:28;4.95;;;3.78;;
8946;SDS011;4508;48.790;9.028;2022-10-31T06:51:55;10.13;;;3.90;;
8946;SDS011;4508;48.790;9.028;2022-10-31T06:54:21;6.63;;;3.60;;
8946;SDS011;4508;48.790;9.028;2022-10-31T06:56:48;6.93;;;4.05;;
8946;SDS011;4508;48.790;9.028;2022-10-31T06:59:17;7.22;;;3.67;;
8946;SDS011;4508;48.790;9.028;2022-10-31T07:01:44;5.03;;;3.60;;
8946;SDS011;4508;48.790;9.028;2022-10-31T07:04:11;5.97;;;3.73;;
8946;SDS011;4508;48.790;9.028;2022-10-31T07:06:38;6.33;;;4.10;;
8946;SDS011;4508;48.790;9.028;2022-10-31T07:09:05;7.17;;;4.00;;
8946;SDS011;4508;48.790;9.028;2022-10-31T07:11:32;5.57;;;3.40;;
8946;SDS011;4508;48.790;9.028;2022-10-31T07:13:58;6.00;;;3.90;;
8946;SDS011;4508;48.790;9.028;2022-10-31T07:16:27;6.05;;;3.60;;
8946;SDS011;4508;48.790;9.028;2022-10-31T07:18:53;5.35;;;3.70;;
8946;SDS011;4508;48.790;9.028;2022-10-31T07:21:20;6.77;;;3.97;;
8946;SDS011;4508;48.790;9.028;2022-10-31T07:23:47;7.15;;;3.63;;
8946;SDS011;4508;48.790;9.028;2022-10-31T07:26:14;7.30;;;3.60;;
8946;SDS011;4508;48.790;9.028;2022-10-31T07:28:41;6.32;;;3.85;;
8946;SDS011;4508;48.790;9.028;2022-10-31T07:31:08;7.75;;;3.72;;
8946;SDS011;4508;48.790;9.028;2022-10-31T07:33:36;6.25;;;3.63;;
8946;SDS011;4508;48.790;9.028;2022-10-31T07:36:03;7.65;;;3.75;;
8946;SDS011;4508;48.790;9.028;2022-10-31T07:38:30;8.07;;;3.50;;
8946;SDS011;4508;48.790;9.028;2022-10-31T07:40:56;7.78;;;3.65;;
8946;SDS011;4508;48.790;9.028;2022-10-31T07:43:23;5.32;;;3.20;;
8946;SDS011;4508;48.790;9.028;2022-10-31T07:45:50;6.70;;;3.58;;
8946;SDS011;4508;48.790;9.028;2022-10-31T07:48:17;5.22;;;3.40;;
8946;SDS011;4508;48.790;9.028;2022-10-31T07:50:46;6.22;;;3.03;;
8946;SDS011;4508;48.790;9.028;2022-10-31T07:53:13;3.72;;;2.80;;
8946;SDS011;4508;48.790;9.028;2022-10-31T07:55:40;6.30;;;3.20;;
8946;SDS011;4508;48.790;9.028;2022-10-31T07:58:08;4.85;;;3.10;;
8946;SDS011;4508;48.790;9.028;2022-10-31T08:00:36;6.47;;;3.30;;
8946;SDS011;4508;48.790;9.028;2022-10-31T08:03:05;5.28;;;3.20;;
8946;SDS011;4508;48.790;9.028;2022-10-31T08:05:33;5.70;;;3.42;;
8946;SDS011;4508;48.790;9.028;2022-10-31T08:08:01;5.03;;;3.42;;
8946;SDS011;4508;48.790;9.028;2022-10-31T08:10:29;5.60;;;3.22;;
8946;SDS011;4508;48.790;9.028;2022-10-31T08:12:56;6.93;;;3.65;;
8946;SDS011;4508;48.790;9.028;2022-10-31T08:15:24;6.72;;;3.60;;
8946;SDS011;4508;48.790;9.028;2022-10-31T08:17:51;4.47;;;3.40;;
8946;SDS011;4508;48.790;9.028;2022-10-31T08:20:18;5.22;;;3.80;;
8946;SDS011;4508;48.790;9.028;2022-10-31T08:22:52;7.95;;;3.90;;
8946;SDS011;4508;48.790;9.028;2022-10-31T08:25:21;5.78;;;3.78;;
8946;SDS011;4508;48.790;9.028;2022-10-31T08:27:49;6.95;;;4.00;;
8946;SDS011;4508;48.790;9.028;2022-10-31T08:30:16;6.63;;;4.03;;
8946;SDS011;4508;48.790;9.028;2022-10-31T08:32:44;5.53;;;3.78;;
8946;SDS011;4508;48.790;9.028;2022-10-31T08:35:10;7.88;;;4.03;;
8946;SDS011;4508;48.790;9.028;2022-10-31T08:37:37;7.50;;;3.93;;
8946;SDS011;4508;48.790;9.028;2022-10-31T08:40:04;8.80;;;4.00;;
8946;SDS011;4508;48.790;9.028;2022-10-31T08:42:33;6.47;;;3.50;;
8946;SDS011;4508;48.790;9.028;2022-10-31T08:45:00;7.40;;;3.40;;
8946;SDS011;4508;48.790;9.028;2022-10-31T08:47:27;5.68;;;3.50;;
8946;SDS011;4508;48.790;9.028;2022-10-31T08:49:53;5.28;;;3.40;;
8946;SDS011;4508;48.790;9.028;2022-10-31T08:52:22;6.72;;;3.35;;
8946;SDS011;4508;48.790;9.028;2022-10-31T08:54:50;5.07;;;3.42;;
8946;SDS011;4508;48.790;9.028;2022-10-31T08:57:16;8.07;;;3.70;;
8946;SDS011;4508;48.790;9.028;2022-10-31T08:59:44;5.57;;;3.47;;
8946;SDS011;4508;48.790;9.028;2022-10-31T09:02:11;7.30;;;3.67;;
8946;SDS011;4508;48.790;9.028;2022-10-31T09:04:38;7.55;;;3.67;;
8946;SDS011;4508;48.790;9.028;2022-10-31T09:07:04;6.18;;;3.75;;
8946;SDS011;4508;48.790;9.028;2022-10-31T09:09:31;7.22;;;3.67;;
8946;SDS011;4508;48.790;9.028;2022-10-31T09:11:58;8.00;;;4.10;;
8946;SDS011;4508;48.790;9.028;2022-10-31T09:14:24;10.43;;;3.70;;
8946;SDS011;4508;48.790;9.028;2022-10-31T09:16:53;6.73;;;3.63;;
8946;SDS011;4508;48.790;9.028;2022-10-31T09:19:19;5.95;;;3.35;;
8946;SDS011;4508;48.790;9.028;2022-10-31T09:21:46;7.43;;;3.50;;
8946;SDS011;4508;48.790;9.028;2022-10-31T09:24:13;6.72;;;3.50;;
8946;SDS011;4508;48.790;9.028;2022-10-31T09:26:40;7.38;;;3.60;;
8946;SDS011;4508;48.790;9.028;2022-10-31T09:29:07;7.47;;;3.47;;
8946;SDS011;4508;48.790;9.028;2022-10-31T09:31:34;7.40;;;3.40;;
8946;SDS011;4508;48.790;9.028;2022-10-31T09:34:02;7.70;;;3.60;;
8946;SDS011;4508;48.790;9.028;2022-10-31T09:36:30;6.15;;;3.60;;
8946;SDS011;4508;48.790;9.028;2022-10-31T09:38:56;6.38;;;3.20;;
8946;SDS011;4508;48.790;9.028;2022-10-31T09:41:24;5.97;;;3.40;;
8946;SDS011;4508;48.790;9.028;2022-10-31T09:43:57;6.40;;;3.50;;
8946;SDS011;4508;48.790;9.028;2022-10-31T09:46:30;8.17;;;3.80;;
8946;SDS011;4508;48.790;9.028;2022-10-31T09:49:10;7.38;;;3.92;;
8946;SDS011;4508;48.790;9.028;2022-10-31T09:51:51;8.00;;;3.70;;
8946;SDS011;4508;48.790;9.028;2022-10-31T09:54:26;6.50;;;3.65;;
8946;SDS011;4508;48.790;9.028;2022-10-31T09:56:55;7.25;;;3.70;;
8946;SDS011;4508;48.790;9.028;2022-10-31T09:59:25;5.07;;;3.58;;
8946;SDS011;4508;48.790;9.028;2022-10-31T10:01:56;7.50;;;3.92;;
8946;SDS011;4508;48.790;9.028;2022-10-31T10:04:32;6.20;;;3.33;;
8946;SDS011;4508;48.790;9.028;2022-10-31T10:07:06;7.10;;;3.60;;
8946;SDS011;4508;48.790;9.028;2022-10-31T10:09:38;5.35;;;3.58;;
8946;SDS011;4508;48.790;9.028;2022-10-31T10:12:07;8.40;;;3.78;;
8946;SDS011;4508;48.790;9.028;2022-10-31T10:14:57;9.35;;;4.00;;
8946;SDS011;4508;48.790;9.028;2022-10-31T10:17:43;8.00;;;3.97;;
8946;SDS011;4508;48.790;9.028;2022-10-31T10:20:23;9.10;;;4.00;;
8946;SDS011;4508;48.790;9.028;2022-10-31T10:23:02;8.75;;;3.75;;
8946;SDS011;4508;48.790;9.028;2022-10-31T10:25:42;8.32;;;3.70;;
8946;SDS011;4508;48.790;9.028;2022-10-31T10:28:17;7.25;;;3.92;;
8946;SDS011;4508;48.790;9.028;2022-10-31T10:30:48;8.52;;;4.25;;
8946;SDS011;4508;48.790;9.028;2022-10-31T10:33:18;7.50;;;4.20;;
8946;SDS011;4508;48.790;9.028;2022-10-31T10:35:50;6.88;;;3.90;;
8946;SDS011;4508;48.790;9.028;2022-10-31T10:38:20;8.57;;;3.75;;
8946;SDS011;4508;48.790;9.028;2022-10-31T10:40:53;5.55;;;3.00;;
8946;SDS011;4508;48.790;9.028;2022-10-31T10:43:22;6.00;;;3.20;;
8946;SDS011;4508;48.790;9.028;2022-10-31T10:49:03;6.68;;;3.33;;
8946;SDS011;4508;48.790;9.028;2022-10-31T10:51:37;7.30;;;3.30;;
8946;SDS011;4508;48.790;9.028;2022-10-31T10:54:13;6.38;;;3.13;;
8946;SDS011;4508;48.790;9.028;2022-10-31T10:57:05;9.52;;;3.65;;
8946;SDS011;4508;48.790;9.028;2022-10-31T10:59:38;7.30;;;3.10;;
8946;SDS011;4508;48.790;9.028;2022-10-31T11:02:08;9.80;;;4.65;;
8946;SDS011;4508;48.790;9.028;2022-10-31T11:04:43;9.90;;;5.93;;
8946;SDS011;4508;48.790;9.028;2022-10-31T11:07:14;13.55;;;7.50;;
8946;SDS011;4508;48.790;9.028;2022-10-31T11:09:41;13.60;;;8.03;;
8946;SDS011;4508;48.790;9.028;2022-10-31T11:12:08;11.10;;;7.55;;
8946;SDS011;4508;48.790;9.028;2022-10-31T11:14:42;11.65;;;5.70;;
8946;SDS011;4508;48.790;9.028;2022-10-31T11:17:17;7.75;;;4.53;;
8946;SDS011;4508;48.790;9.028;2022-10-31T11:19:48;6.93;;;4.20;;
8946;SDS011;4508;48.790;9.028;2022-10-31T11:22:27;6.13;;;3.90;;
8946;SDS011;4508;48.790;9.028;2022-10-31T11:24:54;7.25;;;3.80;;
8946;SDS011;4508;48.790;9.028;2022-10-31T11:27:21;7.95;;;3.47;;
8946;SDS011;4508;48.790;9.028;2022-10-31T11:29:50;7.13;;;3.50;;
8946;SDS011;4508;48.790;9.028;2022-10-31T11:32:20;6.03;;;3.60;;
8946;SDS011;4508;48.790;9.028;2022-10-31T11:34:50;4.80;;;3.40;;
8946;SDS011;4508;48.790;9.028;2022-10-31T11:37:20;6.32;;;3.67;;
8946;SDS011;4508;48.790;9.028;2022-10-31T11:39:50;7.10;;;3.75;;
8946;SDS011;4508;48.790;9.028;2022-10-31T11:42:28;6.72;;;3.70;;
8946;SDS011;4508;48.790;9.028;2022-10-31T11:45:05;8.05;;;4.10;;
8946;SDS011;4508;48.790;9.028;2022-10-31T11:47:40;7.28;;;3.58;;
8946;SDS011;4508;48.790;9.028;2022-10-31T11:50:09;6.93;;;3.35;;
8946;SDS011;4508;48.790;9.028;2022-10-31T11:52:38;7.45;;;3.90;;
8946;SDS011;4508;48.790;9.028;2022-10-31T11:55:15;7.55;;;4.10;;
8946;SDS011;4508;48.790;9.028;2022-10-31T11:57:44;7.65;;;4.18;;
8946;SDS011;4508;48.790;9.028;2022-10-31T12:00:20;7.68;;;4.07;;
8946;SDS011;4508;48.790;9.028;2022-10-31T12:02:48;8.48;;;3.90;;
8946;SDS011;4508;48.790;9.028;2022-10-31T12:05:17;7.57;;;4.35;;
8946;SDS011;4508;48.790;9.028;2022-10-31T12:07:46;7.85;;;3.88;;
8946;SDS011;4508;48.790;9.028;2022-10-31T12:10:15;7.47;;;4.30;;
8946;SDS011;4508;48.790;9.028;2022-10-31T12:12:48;7.50;;;4.13;;
8946;SDS011;4508;48.790;9.028;2022-10-31T12:15:27;7.00;;;4.07;;
8946;SDS011;4508;48.790;9.028;2022-10-31T12:18:00;7.38;;;4.40;;
8946;SDS011;4508;48.790;9.028;2022-10-31T12:20:52;8.07;;;4.60;;
8946;SDS011;4508;48.790;9.028;2022-10-31T12:23:26;8.15;;;4.30;;
8946;SDS011;4508;48.790;9.028;2022-10-31T12:26:06;8.18;;;4.18;;
8946;SDS011;4508;48.790;9.028;2022-10-31T12:28:41;6.90;;;3.80;;
8946;SDS011;4508;48.790;9.028;2022-10-31T12:31:29;8.30;;;4.32;;
8946;SDS011;4508;48.790;9.028;2022-10-31T12:34:18;7.88;;;4.55;;
8946;SDS011;4508;48.790;9.028;2022-10-31T12:37:09;9.23;;;4.50;;
8946;SDS011;4508;48.790;9.028;2022-10-31T12:39:42;7.07;;;4.60;;
8946;SDS011;4508;48.790;9.028;2022-10-31T12:42:19;8.25;;;4.88;;
8946;SDS011;4508;48.790;9.028;2022-10-31T12:45:00;7.57;;;4.65;;
8946;SDS011;4508;48.790;9.028;2022-10-31T12:47:57;8.02;;;4.50;;
8946;SDS011;4508;48.790;9.028;2022-10-31T12:50:47;9.15;;;4.90;;
8946;SDS011;4508;48.790;9.028;2022-10-31T12:53:22;8.73;;;5.10;;
8946;SDS011;4508;48.790;9.028;2022-10-31T12:56:03;9.23;;;5.00;;
8946;SDS011;4508;48.790;9.028;2022-10-31T12:58:43;9.98;;;4.65;;
8946;SDS011;4508;48.790;9.028;2022-10-31T13:01:14;8.85;;;5.00;;
8946;SDS011;4508;48.790;9.028;2022-10-31T13:03:45;9.98;;;5.00;;
8946;SDS011;4508;48.790;9.028;2022-10-31T13:06:22;9.85;;;5.55;;
8946;SDS011;4508;48.790;9.028;2022-10-31T13:08:54;10.13;;;6.03;;
8946;SDS011;4508;48.790;9.028;2022-10-31T13:11:24;9.35;;;5.68;;
8946;SDS011;4508;48.790;9.028;2022-10-31T13:13:58;10.13;;;5.80;;
8946;SDS011;4508;48.790;9.028;2022-10-31T13:16:29;9.80;;;5.40;;
8946;SDS011;4508;48.790;9.028;2022-10-31T13:19:01;9.65;;;5.60;;
8946;SDS011;4508;48.790;9.028;2022-10-31T13:21:46;10.07;;;5.80;;
8946;SDS011;4508;48.790;9.028;2022-10-31T13:24:22;9.88;;;5.40;;
8946;SDS011;4508;48.790;9.028;2022-10-31T13:26:57;10.48;;;5.30;;
8946;SDS011;4508;48.790;9.028;2022-10-31T13:29:29;8.80;;;5.25;;
8946;SDS011;4508;48.790;9.028;2022-10-31T13:31:59;10.50;;;5.40;;
8946;SDS011;4508;48.790;9.028;2022-10-31T13:34:30;8.02;;;5.10;;
8946;SDS011;4508;48.790;9.028;2022-10-31T13:37:04;8.68;;;5.18;;
8946;SDS011;4508;48.790;9.028;2022-10-31T13:39:41;9.80;;;4.90;;
8946;SDS011;4508;48.790;9.028;2022-10-31T13:42:18;9.35;;;5.10;;
8946;SDS011;4508;48.790;9.028;2022-10-31T13:44:50;11.05;;;4.70;;
8946;SDS011;4508;48.790;9.028;2022-10-31T13:47:21;8.13;;;4.50;;
8946;SDS011;4508;48.790;9.028;2022-10-31T13:49:49;7.28;;;4.55;;
8946;SDS011;4508;48.790;9.028;2022-10-31T13:52:21;8.25;;;4.90;;
8946;SDS011;4508;48.790;9.028;2022-10-31T13:54:49;8.70;;;4.50;;
8946;SDS011;4508;48.790;9.028;2022-10-31T13:57:22;8.75;;;4.70;;
8946;SDS011;4508;48.790;9.028;2022-10-31T13:59:56;9.50;;;4.60;;
8946;SDS011;4508;48.790;9.028;2022-10-31T14:02:26;7.30;;;4.47;;
8946;SDS011;4508;48.790;9.028;2022-10-31T14:04:55;7.45;;;4.45;;
8946;SDS011;4508;48.790;9.028;2022-10-31T14:07:24;10.05;;;4.55;;
8946;SDS011;4508;48.790;9.028;2022-10-31T14:09:53;11.25;;;4.90;;
8946;SDS011;4508;48.790;9.028;2022-10-31T14:12:23;12.68;;;5.10;;
8946;SDS011;4508;48.790;9.028;2022-10-31T14:14:56;8.82;;;4.97;;
8946;SDS011;4508;48.790;9.028;2022-10-31T14:17:25;7.15;;;4.68;;
8946;SDS011;4508;48.790;9.028;2022-10-31T14:19:59;8.27;;;4.90;;
8946;SDS011;4508;48.790;9.028;2022-10-31T14:22:31;9.55;;;5.35;;
8946;SDS011;4508;48.790;9.028;2022-10-31T14:24:59;8.57;;;5.25;;
8946;SDS011;4508;48.790;9.028;2022-10-31T14:27:33;10.15;;;5.45;;
8946;SDS011;4508;48.790;9.028;2022-10-31T14:30:15;8.85;;;5.63;;
8946;SDS011;4508;48.790;9.028;2022-10-31T14:32:44;9.65;;;5.57;;
8946;SDS011;4508;48.790;9.028;2022-10-31T14:35:16;9.20;;;5.55;;
8946;SDS011;4508;48.790;9.028;2022-10-31T14:37:49;9.65;;;5.40;;
8946;SDS011;4508;48.790;9.028;2022-10-31T14:40:48;9.93;;;5.43;;
8946;SDS011;4508;48.790;9.028;2022-10-31T14:43:29;8.45;;;5.25;;
8946;SDS011;4508;48.790;9.028;2022-10-31T14:46:16;8.13;;;5.50;;
8946;SDS011;4508;48.790;9.028;2022-10-31T14:49:12;9.25;;;5.97;;
8946;SDS011;4508;48.790;9.028;2022-10-31T14:51:51;11.32;;;5.63;;
8946;SDS011;4508;48.790;9.028;2022-10-31T14:54:19;10.30;;;5.30;;
8946;SDS011;4508;48.790;9.028;2022-10-31T14:56:50;10.40;;;5.00;;
8946;SDS011;4508;48.790;9.028;2022-10-31T14:59:21;9.07;;;5.35;;
8946;SDS011;4508;48.790;9.028;2022-10-31T15:01:56;8.47;;;5.20;;
8946;SDS011;4508;48.790;9.028;2022-10-31T15:04:25;9.82;;;5.38;;
8946;SDS011;4508;48.790;9.028;2022-10-31T15:06:54;10.77;;;5.40;;
8946;SDS011;4508;48.790;9.028;2022-10-31T15:09:27;8.35;;;5.22;;
8946;SDS011;4508;48.790;9.028;2022-10-31T15:11:57;7.60;;;4.70;;
8946;SDS011;4508;48.790;9.028;2022-10-31T15:14:25;9.00;;;5.30;;
8946;SDS011;4508;48.790;9.028;2022-10-31T15:16:53;8.60;;;5.00;;
8946;SDS011;4508;48.790;9.028;2022-10-31T15:19:23;8.77;;;4.80;;
8946;SDS011;4508;48.790;9.028;2022-10-31T15:21:52;7.17;;;4.80;;
8946;SDS011;4508;48.790;9.028;2022-10-31T15:24:20;7.75;;;4.82;;
8946;SDS011;4508;48.790;9.028;2022-10-31T15:26:50;9.07;;;5.15;;
8946;SDS011;4508;48.790;9.028;2022-10-31T15:29:19;8.30;;;4.65;;
8946;SDS011;4508;48.790;9.028;2022-10-31T15:31:50;8.38;;;4.70;;
8946;SDS011;4508;48.790;9.028;2022-10-31T15:34:20;9.50;;;5.00;;
8946;SDS011;4508;48.790;9.028;2022-10-31T15:36:51;9.70;;;5.10;;
8946;SDS011;4508;48.790;9.028;2022-10-31T15:39:18;9.60;;;5.30;;
8946;SDS011;4508;48.790;9.028;2022-10-31T15:41:47;12.50;;;5.37;;